sensor_id;sensor_type;location;lat;lon;timestamp;pressure;altitude;pressure_sealevel;temperature;humidity
3796;BME280;1913;50.660;7.834;2023-04-06T00:01:06;97368.31;;;2.76;56.68
3796;BME280;1913;50.660;7.834;2023-04-06T00:03:31;97372.97;;;2.90;55.96
3796;BME280;1913;50.660;7.834;2023-04-06T00:05:57;97366.22;;;2.79;56.63
3796;BME280;1913;50.660;7.834;2023-04-06T00:08:22;97366.69;;;2.75;56.94
3796;BME280;1913;50.660;7.834;2023-04-06T00:10:48;97363.34;;;2.64;59.79
3796;BME280;1913;50.660;7.834;2023-04-06T00:13:14;97360.34;;;2.77;57.18
3796;BME280;1913;50.660;7.834;2023-04-06T00:15:40;97362.59;;;2.72;59.44
3796;BME280;1913;50.660;7.834;2023-04-06T00:18:05;97363.13;;;2.76;57.58
3796;BME280;1913;50.660;7.834;2023-04-06T00:20:31;97355.84;;;2.61;59.05
3796;BME280;1913;50.660;7.834;2023-04-06T00:22:56;97353.19;;;2.71;57.21
3796;BME280;1913;50.660;7.834;2023-04-06T00:25:22;97348.13;;;2.70;56.61
3796;BME280;1913;50.660;7.834;2023-04-06T00:27:47;97351.13;;;2.75;56.38
3796;BME280;1913;50.660;7.834;2023-04-06T00:30:13;97345.63;;;2.78;57.20
3796;BME280;1913;50.660;7.834;2023-04-06T00:32:38;97342.50;;;2.74;59.27
3796;BME280;1913;50.660;7.834;2023-04-06T00:35:04;97344.06;;;2.49;64.60
3796;BME280;1913;50.660;7.834;2023-04-06T00:37:30;97341.78;;;2.46;63.65
3796;BME280;1913;50.660;7.834;2023-04-06T00:39:56;97343.84;;;2.43;64.06
3796;BME280;1913;50.660;7.834;2023-04-06T00:42:22;97341.59;;;2.30;64.54
3796;BME280;1913;50.660;7.834;2023-04-06T00:44:57;97337.81;;;2.24;70.26
3796;BME280;1913;50.660;7.834;2023-04-06T00:47:23;97341.28;;;2.15;64.58
3796;BME280;1913;50.660;7.834;2023-04-06T00:49:51;97340.22;;;2.08;70.17
3796;BME280;1913;50.660;7.834;2023-04-06T00:52:17;97332.50;;;1.98;70.68
3796;BME280;1913;50.660;7.834;2023-04-06T00:54:43;97327.75;;;1.94;70.04
3796;BME280;1913;50.660;7.834;2023-04-06T00:57:08;97325.81;;;1.96;78.97
3796;BME280;1913;50.660;7.834;2023-04-06T00:59:34;97322.81;;;1.73;80.00
3796;BME280;1913;50.660;7.834;2023-04-06T01:02:00;97317.78;;;1.71;80.01
3796;BME280;1913;50.660;7.834;2023-04-06T01:04:26;97311.91;;;1.69;75.79
3796;BME280;1913;50.660;7.834;2023-04-06T01:06:52;97301.19;;;1.64;81.13
3796;BME280;1913;50.660;7.834;2023-04-06T01:09:17;97311.41;;;1.65;74.39
3796;BME280;1913;50.660;7.834;2023-04-06T01:11:43;97301.56;;;1.69;75.74
3796;BME280;1913;50.660;7.834;2023-04-06T01:14:09;97302.28;;;1.61;80.78
3796;BME280;1913;50.660;7.834;2023-04-06T01:16:35;97307.09;;;1.74;74.18
3796;BME280;1913;50.660;7.834;2023-04-06T01:19:01;97306.59;;;1.71;73.49
3796;BME280;1913;50.660;7.834;2023-04-06T01:21:27;97308.16;;;1.81;69.78
3796;BME280;1913;50.660;7.834;2023-04-06T01:23:52;97300.19;;;1.75;84.64
3796;BME280;1913;50.660;7.834;2023-04-06T01:26:17;97295.53;;;1.78;76.69
3796;BME280;1913;50.660;7.834;2023-04-06T01:28:43;97289.84;;;1.92;65.91
3796;BME280;1913;50.660;7.834;2023-04-06T01:31:10;97297.91;;;1.89;67.20
3796;BME280;1913;50.660;7.834;2023-04-06T01:33:36;97286.94;;;1.96;67.12
3796;BME280;1913;50.660;7.834;2023-04-06T01:36:03;97290.75;;;2.01;65.45
3796;BME280;1913;50.660;7.834;2023-04-06T01:38:28;97284.59;;;2.02;71.13
3796;BME280;1913;50.660;7.834;2023-04-06T01:40:54;97275.88;;;2.03;66.40
3796;BME280;1913;50.660;7.834;2023-04-06T01:43:20;97276.97;;;2.01;63.91
3796;BME280;1913;50.660;7.834;2023-04-06T01:45:45;97269.03;;;2.02;62.48
3796;BME280;1913;50.660;7.834;2023-04-06T01:48:11;97269.56;;;2.06;61.72
3796;BME280;1913;50.660;7.834;2023-04-06T01:50:36;97272.84;;;2.08;62.59
3796;BME280;1913;50.660;7.834;2023-04-06T01:53:02;97275.88;;;2.21;59.34
3796;BME280;1913;50.660;7.834;2023-04-06T01:55:27;97274.56;;;2.17;60.94
3796;BME280;1913;50.660;7.834;2023-04-06T01:57:53;97264.75;;;2.11;60.12
3796;BME280;1913;50.660;7.834;2023-04-06T02:00:18;97271.44;;;2.13;59.66
3796;BME280;1913;50.660;7.834;2023-04-06T02:02:43;97264.25;;;2.25;56.95
3796;BME280;1913;50.660;7.834;2023-04-06T02:05:09;97262.31;;;2.27;58.05
3796;BME280;1913;50.660;7.834;2023-04-06T02:07:34;97263.72;;;2.22;59.31
3796;BME280;1913;50.660;7.834;2023-04-06T02:10:00;97260.22;;;2.13;60.11
3796;BME280;1913;50.660;7.834;2023-04-06T02:12:25;97261.06;;;2.13;60.06
3796;BME280;1913;50.660;7.834;2023-04-06T02:14:51;97260.56;;;2.10;61.66
3796;BME280;1913;50.660;7.834;2023-04-06T02:17:17;97257.03;;;2.01;61.42
3796;BME280;1913;50.660;7.834;2023-04-06T02:19:42;97255.50;;;2.08;60.04
3796;BME280;1913;50.660;7.834;2023-04-06T02:22:09;97251.69;;;2.03;60.96
3796;BME280;1913;50.660;7.834;2023-04-06T02:24:34;97251.88;;;2.01;60.96
3796;BME280;1913;50.660;7.834;2023-04-06T02:27:00;97259.63;;;2.01;62.70
3796;BME280;1913;50.660;7.834;2023-04-06T02:29:26;97258.97;;;1.99;62.70
3796;BME280;1913;50.660;7.834;2023-04-06T02:31:51;97257.09;;;1.91;63.25
3796;BME280;1913;50.660;7.834;2023-04-06T02:34:17;97246.31;;;1.96;62.65
3796;BME280;1913;50.660;7.834;2023-04-06T02:36:46;97247.38;;;2.03;60.12
3796;BME280;1913;50.660;7.834;2023-04-06T02:39:12;97243.13;;;2.02;60.61
3796;BME280;1913;50.660;7.834;2023-04-06T02:41:38;97243.50;;;2.07;59.21
3796;BME280;1913;50.660;7.834;2023-04-06T02:44:05;97247.59;;;2.10;59.12
3796;BME280;1913;50.660;7.834;2023-04-06T02:46:31;97246.63;;;2.11;57.89
3796;BME280;1913;50.660;7.834;2023-04-06T02:48:56;97238.44;;;2.06;58.53
3796;BME280;1913;50.660;7.834;2023-04-06T02:51:22;97241.97;;;2.14;58.73
3796;BME280;1913;50.660;7.834;2023-04-06T02:53:47;97244.31;;;2.08;58.84
3796;BME280;1913;50.660;7.834;2023-04-06T02:56:13;97241.44;;;2.11;57.46
3796;BME280;1913;50.660;7.834;2023-04-06T02:58:38;97235.44;;;2.10;58.52
3796;BME280;1913;50.660;7.834;2023-04-06T03:01:04;97235.72;;;2.07;58.09
3796;BME280;1913;50.660;7.834;2023-04-06T03:03:29;97242.41;;;2.10;57.38
3796;BME280;1913;50.660;7.834;2023-04-06T03:05:55;97232.03;;;2.10;56.44
3796;BME280;1913;50.660;7.834;2023-04-06T03:08:24;97239.81;;;2.10;56.30
3796;BME280;1913;50.660;7.834;2023-04-06T03:10:50;97230.38;;;2.09;56.28
3796;BME280;1913;50.660;7.834;2023-04-06T03:13:16;97237.41;;;2.16;57.11
3796;BME280;1913;50.660;7.834;2023-04-06T03:15:41;97238.84;;;2.11;55.94
3796;BME280;1913;50.660;7.834;2023-04-06T03:18:07;97238.09;;;2.19;55.98
3796;BME280;1913;50.660;7.834;2023-04-06T03:20:32;97239.50;;;2.13;56.45
3796;BME280;1913;50.660;7.834;2023-04-06T03:22:58;97234.63;;;2.10;56.53
3796;BME280;1913;50.660;7.834;2023-04-06T03:25:24;97231.72;;;2.13;55.30
3796;BME280;1913;50.660;7.834;2023-04-06T03:27:49;97237.34;;;2.08;55.50
3796;BME280;1913;50.660;7.834;2023-04-06T03:30:15;97234.63;;;2.10;55.44
3796;BME280;1913;50.660;7.834;2023-04-06T03:32:45;97232.16;;;2.08;55.70
3796;BME280;1913;50.660;7.834;2023-04-06T03:35:10;97231.88;;;2.11;55.18
3796;BME280;1913;50.660;7.834;2023-04-06T03:37:36;97235.56;;;2.09;55.14
3796;BME280;1913;50.660;7.834;2023-04-06T03:40:02;97241.34;;;2.03;55.30
3796;BME280;1913;50.660;7.834;2023-04-06T03:42:28;97233.66;;;2.11;54.48
3796;BME280;1913;50.660;7.834;2023-04-06T03:44:53;97234.81;;;2.16;54.55
3796;BME280;1913;50.660;7.834;2023-04-06T03:47:19;97233.50;;;2.12;53.64
3796;BME280;1913;50.660;7.834;2023-04-06T03:49:45;97231.44;;;2.16;54.49
3796;BME280;1913;50.660;7.834;2023-04-06T03:52:11;97230.91;;;2.12;54.09
3796;BME280;1913;50.660;7.834;2023-04-06T03:54:36;97235.28;;;2.12;54.11
3796;BME280;1913;50.660;7.834;2023-04-06T03:57:02;97236.31;;;2.19;53.34
3796;BME280;1913;50.660;7.834;2023-04-06T03:59:27;97241.03;;;2.24;53.00
3796;BME280;1913;50.660;7.834;2023-04-06T04:01:53;97234.09;;;2.24;53.54
3796;BME280;1913;50.660;7.834;2023-04-06T04:04:18;97241.38;;;2.21;52.63
3796;BME280;1913;50.660;7.834;2023-04-06T04:06:44;97243.00;;;2.22;53.15
3796;BME280;1913;50.660;7.834;2023-04-06T04:09:10;97240.91;;;2.25;52.33
3796;BME280;1913;50.660;7.834;2023-04-06T04:11:35;97247.06;;;2.24;52.54
3796;BME280;1913;50.660;7.834;2023-04-06T04:14:02;97245.66;;;2.30;52.77
3796;BME280;1913;50.660;7.834;2023-04-06T04:16:52;97250.78;;;2.22;52.52
3796;BME280;1913;50.660;7.834;2023-04-06T04:19:42;97247.28;;;2.13;52.87
3796;BME280;1913;50.660;7.834;2023-04-06T04:22:32;97253.81;;;2.17;52.24
3796;BME280;1913;50.660;7.834;2023-04-06T04:25:23;97257.44;;;2.24;51.76
3796;BME280;1913;50.660;7.834;2023-04-06T04:28:13;97252.91;;;2.26;52.41
3796;BME280;1913;50.660;7.834;2023-04-06T04:31:03;97253.72;;;2.27;52.46
3796;BME280;1913;50.660;7.834;2023-04-06T04:33:54;97254.69;;;2.26;52.04
3796;BME280;1913;50.660;7.834;2023-04-06T04:36:45;97256.09;;;2.20;52.32
3796;BME280;1913;50.660;7.834;2023-04-06T04:39:36;97247.72;;;2.26;52.37
3796;BME280;1913;50.660;7.834;2023-04-06T04:42:26;97255.88;;;2.13;52.83
3796;BME280;1913;50.660;7.834;2023-04-06T04:45:17;97249.28;;;2.19;52.26
3796;BME280;1913;50.660;7.834;2023-04-06T04:48:07;97248.63;;;2.17;52.33
3796;BME280;1913;50.660;7.834;2023-04-06T04:50:57;97246.03;;;2.17;52.02
3796;BME280;1913;50.660;7.834;2023-04-06T04:53:48;97250.84;;;2.12;53.43
3796;BME280;1913;50.660;7.834;2023-04-06T04:56:38;97252.16;;;2.16;52.31
3796;BME280;1913;50.660;7.834;2023-04-06T04:59:28;97256.09;;;2.20;51.99
3796;BME280;1913;50.660;7.834;2023-04-06T05:02:19;97253.06;;;2.25;52.39
3796;BME280;1913;50.660;7.834;2023-04-06T05:05:10;97250.78;;;2.22;52.30
3796;BME280;1913;50.660;7.834;2023-04-06T05:08:01;97255.50;;;2.26;52.08
3796;BME280;1913;50.660;7.834;2023-04-06T05:10:51;97251.94;;;2.27;52.18
3796;BME280;1913;50.660;7.834;2023-04-06T05:13:42;97270.94;;;2.28;52.15
3796;BME280;1913;50.660;7.834;2023-04-06T05:16:34;97248.75;;;2.33;51.72
3796;BME280;1913;50.660;7.834;2023-04-06T05:19:24;97252.09;;;2.44;51.91
3796;BME280;1913;50.660;7.834;2023-04-06T05:22:14;97256.06;;;2.56;52.27
3796;BME280;1913;50.660;7.834;2023-04-06T05:25:05;97256.44;;;2.61;51.97
3796;BME280;1913;50.660;7.834;2023-04-06T05:27:56;97250.56;;;2.77;50.99
3796;BME280;1913;50.660;7.834;2023-04-06T05:30:47;97256.94;;;2.82;51.74
3796;BME280;1913;50.660;7.834;2023-04-06T05:33:38;97256.78;;;3.10;50.36
3796;BME280;1913;50.660;7.834;2023-04-06T05:42:18;97252.28;;;3.54;49.24
3796;BME280;1913;50.660;7.834;2023-04-06T05:44:44;97260.78;;;3.65;49.14
3796;BME280;1913;50.660;7.834;2023-04-06T05:47:12;97259.34;;;3.78;50.25
3796;BME280;1913;50.660;7.834;2023-04-06T05:49:37;97261.34;;;3.93;48.86
3796;BME280;1913;50.660;7.834;2023-04-06T05:52:02;97250.81;;;4.02;48.78
3796;BME280;1913;50.660;7.834;2023-04-06T05:54:29;97262.16;;;4.01;48.87
3796;BME280;1913;50.660;7.834;2023-04-06T05:56:55;97257.81;;;4.18;48.93
3796;BME280;1913;50.660;7.834;2023-04-06T05:59:20;97258.66;;;4.27;48.93
3796;BME280;1913;50.660;7.834;2023-04-06T06:04:57;97262.56;;;4.39;49.07
3796;BME280;1913;50.660;7.834;2023-04-06T06:07:23;97258.34;;;4.46;49.52
3796;BME280;1913;50.660;7.834;2023-04-06T06:09:48;97270.06;;;4.42;48.97
3796;BME280;1913;50.660;7.834;2023-04-06T06:12:13;97264.53;;;4.45;50.16
3796;BME280;1913;50.660;7.834;2023-04-06T06:14:39;97256.22;;;4.50;49.40
3796;BME280;1913;50.660;7.834;2023-04-06T06:17:04;97252.66;;;4.59;49.49
3796;BME280;1913;50.660;7.834;2023-04-06T06:19:30;97264.84;;;4.83;50.06
3796;BME280;1913;50.660;7.834;2023-04-06T06:21:55;97259.47;;;4.85;49.12
3796;BME280;1913;50.660;7.834;2023-04-06T06:24:20;97253.28;;;4.86;49.09
3796;BME280;1913;50.660;7.834;2023-04-06T06:26:46;97257.97;;;5.07;49.40
3796;BME280;1913;50.660;7.834;2023-04-06T06:29:14;97256.84;;;5.01;49.15
3796;BME280;1913;50.660;7.834;2023-04-06T06:31:39;97251.75;;;5.16;49.15
3796;BME280;1913;50.660;7.834;2023-04-06T06:34:05;97256.13;;;5.32;50.44
3796;BME280;1913;50.660;7.834;2023-04-06T06:36:30;97266.22;;;5.35;48.65
3796;BME280;1913;50.660;7.834;2023-04-06T06:38:57;97260.66;;;5.46;48.58
3796;BME280;1913;50.660;7.834;2023-04-06T06:41:25;97267.38;;;5.71;48.89
3796;BME280;1913;50.660;7.834;2023-04-06T06:43:51;97269.00;;;5.72;48.54
3796;BME280;1913;50.660;7.834;2023-04-06T06:46:16;97267.31;;;5.88;49.07
3796;BME280;1913;50.660;7.834;2023-04-06T06:48:41;97265.63;;;6.03;48.42
3796;BME280;1913;50.660;7.834;2023-04-06T06:51:07;97264.22;;;6.23;48.22
3796;BME280;1913;50.660;7.834;2023-04-06T06:53:32;97267.50;;;6.17;48.36
3796;BME280;1913;50.660;7.834;2023-04-06T06:55:57;97273.44;;;6.57;48.72
3796;BME280;1913;50.660;7.834;2023-04-06T06:58:23;97263.16;;;6.79;47.89
3796;BME280;1913;50.660;7.834;2023-04-06T07:00:48;97265.88;;;6.85;47.10
3796;BME280;1913;50.660;7.834;2023-04-06T07:03:14;97262.94;;;7.18;47.44
3796;BME280;1913;50.660;7.834;2023-04-06T07:05:45;97265.31;;;7.28;47.10
3796;BME280;1913;50.660;7.834;2023-04-06T07:08:14;97267.13;;;7.27;46.75
3796;BME280;1913;50.660;7.834;2023-04-06T07:10:39;97264.84;;;7.54;47.14
3796;BME280;1913;50.660;7.834;2023-04-06T07:13:05;97271.19;;;7.44;45.62
3796;BME280;1913;50.660;7.834;2023-04-06T07:15:30;97267.09;;;7.72;47.05
3796;BME280;1913;50.660;7.834;2023-04-06T07:17:56;97261.63;;;8.03;45.50
3796;BME280;1913;50.660;7.834;2023-04-06T07:20:21;97269.66;;;7.65;45.82
3796;BME280;1913;50.660;7.834;2023-04-06T07:22:46;97264.03;;;7.53;45.32
3796;BME280;1913;50.660;7.834;2023-04-06T07:25:13;97265.72;;;7.90;45.34
3796;BME280;1913;50.660;7.834;2023-04-06T07:27:38;97261.44;;;7.83;45.84
3796;BME280;1913;50.660;7.834;2023-04-06T07:30:04;97261.91;;;8.08;45.22
3796;BME280;1913;50.660;7.834;2023-04-06T07:32:29;97276.16;;;8.05;45.12
3796;BME280;1913;50.660;7.834;2023-04-06T07:34:56;97272.81;;;8.11;46.12
3796;BME280;1913;50.660;7.834;2023-04-06T07:37:21;97272.38;;;8.44;44.28
3796;BME280;1913;50.660;7.834;2023-04-06T07:39:47;97262.41;;;8.76;44.31
3796;BME280;1913;50.660;7.834;2023-04-06T07:42:12;97255.25;;;9.19;44.74
3796;BME280;1913;50.660;7.834;2023-04-06T07:44:37;97264.22;;;9.03;43.00
3796;BME280;1913;50.660;7.834;2023-04-06T07:47:03;97272.72;;;9.05;42.85
3796;BME280;1913;50.660;7.834;2023-04-06T07:49:28;97257.25;;;8.89;42.78
3796;BME280;1913;50.660;7.834;2023-04-06T07:51:53;97260.72;;;8.90;43.58
3796;BME280;1913;50.660;7.834;2023-04-06T07:54:19;97261.06;;;9.43;43.29
3796;BME280;1913;50.660;7.834;2023-04-06T07:56:44;97261.84;;;9.78;43.00
3796;BME280;1913;50.660;7.834;2023-04-06T07:59:10;97259.66;;;9.88;41.97
3796;BME280;1913;50.660;7.834;2023-04-06T08:01:36;97258.66;;;10.50;42.20
3796;BME280;1913;50.660;7.834;2023-04-06T08:04:02;97260.09;;;11.13;40.03
3796;BME280;1913;50.660;7.834;2023-04-06T08:06:27;97253.63;;;11.15;39.73
3796;BME280;1913;50.660;7.834;2023-04-06T08:08:53;97257.66;;;11.24;39.92
3796;BME280;1913;50.660;7.834;2023-04-06T08:11:19;97253.25;;;10.85;39.20
3796;BME280;1913;50.660;7.834;2023-04-06T08:13:45;97252.00;;;10.94;39.20
3796;BME280;1913;50.660;7.834;2023-04-06T08:16:10;97260.72;;;11.08;41.00
3796;BME280;1913;50.660;7.834;2023-04-06T08:18:35;97258.88;;;11.09;40.87
3796;BME280;1913;50.660;7.834;2023-04-06T08:21:01;97265.34;;;11.13;39.11
3796;BME280;1913;50.660;7.834;2023-04-06T08:23:26;97262.53;;;11.08;39.28
3796;BME280;1913;50.660;7.834;2023-04-06T08:25:51;97275.28;;;10.71;41.01
3796;BME280;1913;50.660;7.834;2023-04-06T08:28:19;97265.38;;;10.99;40.45
3796;BME280;1913;50.660;7.834;2023-04-06T08:30:45;97264.53;;;11.12;39.51
3796;BME280;1913;50.660;7.834;2023-04-06T08:33:10;97267.50;;;11.62;39.28
3796;BME280;1913;50.660;7.834;2023-04-06T08:35:36;97276.56;;;11.80;38.29
3796;BME280;1913;50.660;7.834;2023-04-06T08:38:01;97266.81;;;11.93;38.67
3796;BME280;1913;50.660;7.834;2023-04-06T08:40:27;97261.78;;;11.92;37.91
3796;BME280;1913;50.660;7.834;2023-04-06T08:42:55;97269.97;;;12.15;37.79
3796;BME280;1913;50.660;7.834;2023-04-06T08:45:21;97263.94;;;12.40;38.09
3796;BME280;1913;50.660;7.834;2023-04-06T08:47:57;97269.34;;;12.52;39.68
3796;BME280;1913;50.660;7.834;2023-04-06T08:50:23;97275.38;;;12.27;37.62
3796;BME280;1913;50.660;7.834;2023-04-06T08:52:49;97269.78;;;12.10;38.42
3796;BME280;1913;50.660;7.834;2023-04-06T08:55:15;97269.31;;;12.58;38.11
3796;BME280;1913;50.660;7.834;2023-04-06T08:57:41;97282.44;;;12.33;37.89
3796;BME280;1913;50.660;7.834;2023-04-06T09:00:09;97277.44;;;12.57;37.60
3796;BME280;1913;50.660;7.834;2023-04-06T09:02:38;97264.56;;;12.42;37.89
3796;BME280;1913;50.660;7.834;2023-04-06T09:05:04;97264.41;;;12.30;38.13
3796;BME280;1913;50.660;7.834;2023-04-06T09:07:29;97268.28;;;12.28;38.59
3796;BME280;1913;50.660;7.834;2023-04-06T09:09:56;97276.53;;;12.69;38.65
3796;BME280;1913;50.660;7.834;2023-04-06T09:12:22;97259.03;;;13.07;37.48
3796;BME280;1913;50.660;7.834;2023-04-06T09:14:48;97262.88;;;13.04;37.43
3796;BME280;1913;50.660;7.834;2023-04-06T09:17:20;97281.69;;;13.39;37.67
3796;BME280;1913;50.660;7.834;2023-04-06T09:19:46;97279.28;;;13.56;38.98
3796;BME280;1913;50.660;7.834;2023-04-06T09:22:11;97263.22;;;13.95;37.68
3796;BME280;1913;50.660;7.834;2023-04-06T09:24:45;97268.09;;;14.28;35.63
3796;BME280;1913;50.660;7.834;2023-04-06T09:27:11;97259.75;;;14.43;35.11
3796;BME280;1913;50.660;7.834;2023-04-06T09:29:37;97262.34;;;13.82;36.69
3796;BME280;1913;50.660;7.834;2023-04-06T09:32:06;97262.84;;;14.40;36.60
3796;BME280;1913;50.660;7.834;2023-04-06T09:34:33;97261.38;;;14.85;35.66
3796;BME280;1913;50.660;7.834;2023-04-06T09:36:59;97259.59;;;14.56;37.74
3796;BME280;1913;50.660;7.834;2023-04-06T09:39:24;97257.59;;;14.21;35.87
3796;BME280;1913;50.660;7.834;2023-04-06T09:41:51;97267.56;;;14.19;36.58
3796;BME280;1913;50.660;7.834;2023-04-06T09:44:17;97254.09;;;13.90;36.42
3796;BME280;1913;50.660;7.834;2023-04-06T09:46:44;97262.09;;;13.29;36.85
3796;BME280;1913;50.660;7.834;2023-04-06T09:49:11;97257.25;;;13.44;38.08
3796;BME280;1913;50.660;7.834;2023-04-06T09:51:43;97262.19;;;13.40;36.90
3796;BME280;1913;50.660;7.834;2023-04-06T09:54:11;97260.28;;;13.23;37.15
3796;BME280;1913;50.660;7.834;2023-04-06T09:56:46;97253.47;;;13.58;38.24
3796;BME280;1913;50.660;7.834;2023-04-06T10:02:30;97249.69;;;13.04;36.21
3796;BME280;1913;50.660;7.834;2023-04-06T10:05:03;97251.91;;;13.69;35.82
3796;BME280;1913;50.660;7.834;2023-04-06T10:07:31;97250.66;;;14.38;36.46
3796;BME280;1913;50.660;7.834;2023-04-06T10:09:57;97235.22;;;13.38;35.76
3796;BME280;1913;50.660;7.834;2023-04-06T10:12:24;97244.06;;;13.99;35.58
3796;BME280;1913;50.660;7.834;2023-04-06T10:14:52;97246.06;;;13.85;34.46
3796;BME280;1913;50.660;7.834;2023-04-06T10:17:18;97241.44;;;13.81;35.73
3796;BME280;1913;50.660;7.834;2023-04-06T10:19:53;97246.53;;;12.70;35.43
3796;BME280;1913;50.660;7.834;2023-04-06T10:22:31;97234.06;;;12.84;36.11
3796;BME280;1913;50.660;7.834;2023-04-06T10:24:58;97247.31;;;13.46;36.58
3796;BME280;1913;50.660;7.834;2023-04-06T10:27:30;97245.25;;;13.23;36.99
3796;BME280;1913;50.660;7.834;2023-04-06T10:30:01;97258.00;;;13.33;36.92
3796;BME280;1913;50.660;7.834;2023-04-06T10:32:35;97256.00;;;13.28;36.63
3796;BME280;1913;50.660;7.834;2023-04-06T10:35:05;97248.56;;;13.18;35.88
3796;BME280;1913;50.660;7.834;2023-04-06T10:37:52;97257.50;;;12.92;36.53
3796;BME280;1913;50.660;7.834;2023-04-06T10:40:21;97261.84;;;13.05;35.97
3796;BME280;1913;50.660;7.834;2023-04-06T10:42:47;97250.63;;;12.35;38.22
3796;BME280;1913;50.660;7.834;2023-04-06T10:45:23;97257.06;;;12.39;37.98
3796;BME280;1913;50.660;7.834;2023-04-06T10:47:49;97247.13;;;12.03;39.25
3796;BME280;1913;50.660;7.834;2023-04-06T10:50:16;97247.19;;;11.83;39.56
3796;BME280;1913;50.660;7.834;2023-04-06T10:52:46;97259.63;;;12.14;39.91
3796;BME280;1913;50.660;7.834;2023-04-06T10:55:13;97261.56;;;11.80;40.44
3796;BME280;1913;50.660;7.834;2023-04-06T10:57:39;97248.78;;;11.97;40.31
3796;BME280;1913;50.660;7.834;2023-04-06T11:00:05;97245.56;;;11.82;40.03
3796;BME280;1913;50.660;7.834;2023-04-06T11:02:31;97245.19;;;12.23;40.74
3796;BME280;1913;50.660;7.834;2023-04-06T11:04:58;97248.50;;;12.12;40.29
3796;BME280;1913;50.660;7.834;2023-04-06T11:07:27;97239.44;;;12.39;39.95
3796;BME280;1913;50.660;7.834;2023-04-06T11:09:54;97243.94;;;12.32;41.99
3796;BME280;1913;50.660;7.834;2023-04-06T11:12:27;97245.75;;;12.32;40.77
3796;BME280;1913;50.660;7.834;2023-04-06T11:15:00;97257.44;;;12.04;40.54
3796;BME280;1913;50.660;7.834;2023-04-06T11:17:30;97255.81;;;12.10;40.99
3796;BME280;1913;50.660;7.834;2023-04-06T11:19:57;97253.66;;;11.93;40.68
3796;BME280;1913;50.660;7.834;2023-04-06T11:22:23;97242.25;;;12.06;40.58
3796;BME280;1913;50.660;7.834;2023-04-06T11:24:48;97236.94;;;12.44;39.40
3796;BME280;1913;50.660;7.834;2023-04-06T11:27:17;97237.00;;;12.38;39.81
3796;BME280;1913;50.660;7.834;2023-04-06T11:29:43;97229.19;;;12.56;40.64
3796;BME280;1913;50.660;7.834;2023-04-06T11:32:11;97226.19;;;12.53;41.04
3796;BME280;1913;50.660;7.834;2023-04-06T11:34:38;97230.69;;;12.45;39.72
3796;BME280;1913;50.660;7.834;2023-04-06T11:37:09;97215.81;;;12.51;40.30
3796;BME280;1913;50.660;7.834;2023-04-06T11:39:53;97219.22;;;12.83;40.86
3796;BME280;1913;50.660;7.834;2023-04-06T11:42:26;97208.22;;;13.11;42.01
3796;BME280;1913;50.660;7.834;2023-04-06T11:44:58;97220.53;;;12.99;39.52
3796;BME280;1913;50.660;7.834;2023-04-06T11:47:33;97207.91;;;13.26;39.55
3796;BME280;1913;50.660;7.834;2023-04-06T11:50:08;97216.31;;;13.16;38.43
3796;BME280;1913;50.660;7.834;2023-04-06T11:52:34;97199.44;;;13.43;40.54
3796;BME280;1913;50.660;7.834;2023-04-06T11:55:14;97199.13;;;13.51;38.25
3796;BME280;1913;50.660;7.834;2023-04-06T11:57:40;97211.03;;;13.90;37.29
3796;BME280;1913;50.660;7.834;2023-04-06T12:00:07;97192.13;;;14.65;36.79
3796;BME280;1913;50.660;7.834;2023-04-06T12:02:34;97197.44;;;15.00;34.91
3796;BME280;1913;50.660;7.834;2023-04-06T12:05:00;97195.78;;;14.64;35.73
3796;BME280;1913;50.660;7.834;2023-04-06T12:07:25;97198.03;;;13.77;37.02
3796;BME280;1913;50.660;7.834;2023-04-06T12:09:50;97192.91;;;13.94;39.31
3796;BME280;1913;50.660;7.834;2023-04-06T12:12:16;97189.00;;;13.84;38.14
3796;BME280;1913;50.660;7.834;2023-04-06T12:14:41;97192.38;;;13.73;36.93
3796;BME280;1913;50.660;7.834;2023-04-06T12:17:07;97188.72;;;14.04;36.11
3796;BME280;1913;50.660;7.834;2023-04-06T12:19:33;97194.13;;;13.79;37.09
3796;BME280;1913;50.660;7.834;2023-04-06T12:21:58;97191.50;;;13.61;37.18
3796;BME280;1913;50.660;7.834;2023-04-06T12:24:24;97201.31;;;13.72;37.96
3796;BME280;1913;50.660;7.834;2023-04-06T12:26:49;97195.38;;;13.58;36.07
3796;BME280;1913;50.660;7.834;2023-04-06T12:29:15;97197.66;;;13.73;37.03
3796;BME280;1913;50.660;7.834;2023-04-06T12:31:40;97193.09;;;13.62;36.88
3796;BME280;1913;50.660;7.834;2023-04-06T12:34:08;97190.09;;;13.58;36.32
3796;BME280;1913;50.660;7.834;2023-04-06T12:36:33;97195.44;;;12.90;37.71
3796;BME280;1913;50.660;7.834;2023-04-06T12:38:59;97206.97;;;12.96;37.16
3796;BME280;1913;50.660;7.834;2023-04-06T12:41:25;97212.19;;;13.02;37.55
3796;BME280;1913;50.660;7.834;2023-04-06T12:43:51;97198.00;;;13.22;37.06
3796;BME280;1913;50.660;7.834;2023-04-06T12:46:16;97194.97;;;13.00;38.24
3796;BME280;1913;50.660;7.834;2023-04-06T12:48:42;97184.75;;;12.85;37.45
3796;BME280;1913;50.660;7.834;2023-04-06T12:51:07;97180.44;;;13.09;37.99
3796;BME280;1913;50.660;7.834;2023-04-06T12:53:33;97181.34;;;13.03;38.23
3796;BME280;1913;50.660;7.834;2023-04-06T12:56:00;97185.22;;;13.18;36.96
3796;BME280;1913;50.660;7.834;2023-04-06T12:58:25;97183.72;;;13.66;37.40
3796;BME280;1913;50.660;7.834;2023-04-06T13:00:52;97198.19;;;13.45;37.18
3796;BME280;1913;50.660;7.834;2023-04-06T13:03:20;97187.91;;;13.74;35.92
3796;BME280;1913;50.660;7.834;2023-04-06T13:05:50;97184.31;;;13.68;38.09
3796;BME280;1913;50.660;7.834;2023-04-06T13:08:17;97175.03;;;13.22;36.80
3796;BME280;1913;50.660;7.834;2023-04-06T13:10:44;97181.00;;;13.54;37.64
3796;BME280;1913;50.660;7.834;2023-04-06T13:13:10;97172.34;;;13.65;36.63
3796;BME280;1913;50.660;7.834;2023-04-06T13:15:35;97184.59;;;13.78;36.31
3796;BME280;1913;50.660;7.834;2023-04-06T13:18:02;97180.41;;;13.34;36.76
3796;BME280;1913;50.660;7.834;2023-04-06T13:20:27;97186.44;;;13.59;36.47
3796;BME280;1913;50.660;7.834;2023-04-06T13:22:53;97180.31;;;13.22;36.93
3796;BME280;1913;50.660;7.834;2023-04-06T13:25:18;97180.44;;;13.09;37.69
3796;BME280;1913;50.660;7.834;2023-04-06T13:27:43;97182.56;;;13.00;36.92
3796;BME280;1913;50.660;7.834;2023-04-06T13:30:11;97178.59;;;12.91;37.89
3796;BME280;1913;50.660;7.834;2023-04-06T13:32:37;97169.25;;;12.95;37.64
3796;BME280;1913;50.660;7.834;2023-04-06T13:35:05;97180.25;;;12.67;38.68
3796;BME280;1913;50.660;7.834;2023-04-06T13:37:32;97183.66;;;12.42;38.66
3796;BME280;1913;50.660;7.834;2023-04-06T13:39:58;97178.63;;;12.34;38.79
3796;BME280;1913;50.660;7.834;2023-04-06T13:42:23;97182.00;;;12.48;39.01
3796;BME280;1913;50.660;7.834;2023-04-06T13:44:49;97174.72;;;12.93;38.54
3796;BME280;1913;50.660;7.834;2023-04-06T13:47:16;97175.09;;;12.47;37.86